sensor_id;sensor_type;location;lat;lon;timestamp;P1;durP1;ratioP1;P2;durP2;ratioP2
10031;SDS011;5056;44.272;19.892;2023-09-18T00:01:09;14.35;;;13.05;;
10031;SDS011;5056;44.272;19.892;2023-09-18T00:03:40;14.60;;;13.30;;
10031;SDS011;5056;44.272;19.892;2023-09-18T00:06:07;14.77;;;12.80;;
10031;SDS011;5056;44.272;19.892;2023-09-18T00:08:37;14.02;;;12.82;;
10031;SDS011;5056;44.272;19.892;2023-09-18T00:11:05;16.58;;;13.00;;
10031;SDS011;5056;44.272;19.892;2023-09-18T00:13:37;13.80;;;12.50;;
10031;SDS011;5056;44.272;19.892;2023-09-18T00:16:07;14.75;;;13.45;;
10031;SDS011;5056;44.272;19.892;2023-09-18T00:18:34;14.88;;;13.48;;
10031;SDS011;5056;44.272;19.892;2023-09-18T00:21:02;14.52;;;13.23;;
10031;SDS011;5056;44.272;19.892;2023-09-18T00:23:29;14.75;;;13.52;;
10031;SDS011;5056;44.272;19.892;2023-09-18T00:25:56;14.45;;;13.15;;
10031;SDS011;5056;44.272;19.892;2023-09-18T00:28:23;14.25;;;13.07;;
10031;SDS011;5056;44.272;19.892;2023-09-18T00:30:51;13.45;;;12.30;;
10031;SDS011;5056;44.272;19.892;2023-09-18T00:33:19;14.82;;;13.50;;
10031;SDS011;5056;44.272;19.892;2023-09-18T00:35:46;13.50;;;12.20;;
10031;SDS011;5056;44.272;19.892;2023-09-18T00:38:14;15.63;;;14.10;;
10031;SDS011;5056;44.272;19.892;2023-09-18T00:40:40;14.70;;;13.40;;
10031;SDS011;5056;44.272;19.892;2023-09-18T00:43:15;14.93;;;13.43;;
10031;SDS011;5056;44.272;19.892;2023-09-18T00:45:44;14.20;;;12.88;;
10031;SDS011;5056;44.272;19.892;2023-09-18T00:48:12;12.95;;;11.88;;
10031;SDS011;5056;44.272;19.892;2023-09-18T00:50:42;14.45;;;13.05;;
10031;SDS011;5056;44.272;19.892;2023-09-18T00:53:11;14.57;;;13.18;;
10031;SDS011;5056;44.272;19.892;2023-09-18T00:55:40;13.48;;;12.27;;
10031;SDS011;5056;44.272;19.892;2023-09-18T00:58:07;13.18;;;12.18;;
10031;SDS011;5056;44.272;19.892;2023-09-18T01:00:35;13.30;;;12.20;;
10031;SDS011;5056;44.272;19.892;2023-09-18T01:03:02;12.55;;;11.45;;
10031;SDS011;5056;44.272;19.892;2023-09-18T01:05:31;13.15;;;11.95;;
10031;SDS011;5056;44.272;19.892;2023-09-18T01:08:00;13.75;;;12.57;;
10031;SDS011;5056;44.272;19.892;2023-09-18T01:10:28;13.27;;;12.18;;
10031;SDS011;5056;44.272;19.892;2023-09-18T01:12:59;11.85;;;10.90;;
10031;SDS011;5056;44.272;19.892;2023-09-18T01:15:30;13.05;;;11.85;;
10031;SDS011;5056;44.272;19.892;2023-09-18T01:18:00;12.75;;;11.55;;
10031;SDS011;5056;44.272;19.892;2023-09-18T01:20:28;13.98;;;12.77;;
10031;SDS011;5056;44.272;19.892;2023-09-18T01:22:57;13.55;;;12.20;;
10031;SDS011;5056;44.272;19.892;2023-09-18T01:25:23;13.27;;;11.98;;
10031;SDS011;5056;44.272;19.892;2023-09-18T01:27:50;14.60;;;12.15;;
10031;SDS011;5056;44.272;19.892;2023-09-18T01:30:18;13.52;;;12.32;;
10031;SDS011;5056;44.272;19.892;2023-09-18T01:32:45;13.88;;;12.68;;
10031;SDS011;5056;44.272;19.892;2023-09-18T01:35:13;12.80;;;11.70;;
10031;SDS011;5056;44.272;19.892;2023-09-18T01:37:41;13.82;;;12.63;;
10031;SDS011;5056;44.272;19.892;2023-09-18T01:40:10;13.82;;;12.70;;
10031;SDS011;5056;44.272;19.892;2023-09-18T01:42:37;13.65;;;12.35;;
10031;SDS011;5056;44.272;19.892;2023-09-18T01:47:47;13.32;;;12.02;;
10031;SDS011;5056;44.272;19.892;2023-09-18T01:50:14;13.73;;;12.52;;
10031;SDS011;5056;44.272;19.892;2023-09-18T01:52:41;13.85;;;12.00;;
10031;SDS011;5056;44.272;19.892;2023-09-18T01:55:13;12.65;;;11.55;;
10031;SDS011;5056;44.272;19.892;2023-09-18T01:57:40;12.95;;;11.30;;
10031;SDS011;5056;44.272;19.892;2023-09-18T02:00:08;15.85;;;12.13;;
10031;SDS011;5056;44.272;19.892;2023-09-18T02:02:35;12.77;;;11.75;;
10031;SDS011;5056;44.272;19.892;2023-09-18T02:05:06;12.40;;;11.30;;
10031;SDS011;5056;44.272;19.892;2023-09-18T02:07:33;12.35;;;11.35;;
10031;SDS011;5056;44.272;19.892;2023-09-18T02:10:00;12.15;;;11.15;;
10031;SDS011;5056;44.272;19.892;2023-09-18T02:12:35;13.13;;;11.75;;
10031;SDS011;5056;44.272;19.892;2023-09-18T02:15:03;12.98;;;11.52;;
10031;SDS011;5056;44.272;19.892;2023-09-18T02:17:32;12.95;;;11.73;;
10031;SDS011;5056;44.272;19.892;2023-09-18T02:23:20;12.82;;;11.70;;
10031;SDS011;5056;44.272;19.892;2023-09-18T02:25:54;12.10;;;11.10;;
10031;SDS011;5056;44.272;19.892;2023-09-18T02:28:24;12.13;;;11.02;;
10031;SDS011;5056;44.272;19.892;2023-09-18T02:30:51;12.48;;;11.25;;
10031;SDS011;5056;44.272;19.892;2023-09-18T02:33:19;12.32;;;11.23;;
10031;SDS011;5056;44.272;19.892;2023-09-18T02:35:46;12.95;;;11.82;;
10031;SDS011;5056;44.272;19.892;2023-09-18T02:38:13;12.82;;;11.77;;
10031;SDS011;5056;44.272;19.892;2023-09-18T02:40:40;11.38;;;10.38;;
10031;SDS011;5056;44.272;19.892;2023-09-18T02:43:07;12.25;;;11.10;;
10031;SDS011;5056;44.272;19.892;2023-09-18T02:45:36;12.40;;;11.40;;
10031;SDS011;5056;44.272;19.892;2023-09-18T02:48:03;11.73;;;10.82;;
10031;SDS011;5056;44.272;19.892;2023-09-18T02:50:31;11.73;;;10.70;;
10031;SDS011;5056;44.272;19.892;2023-09-18T02:52:58;12.80;;;11.48;;
10031;SDS011;5056;44.272;19.892;2023-09-18T02:55:25;12.02;;;10.82;;
10031;SDS011;5056;44.272;19.892;2023-09-18T02:57:55;12.15;;;11.05;;
10031;SDS011;5056;44.272;19.892;2023-09-18T03:00:28;12.40;;;11.20;;
10031;SDS011;5056;44.272;19.892;2023-09-18T03:02:56;11.88;;;10.88;;
10031;SDS011;5056;44.272;19.892;2023-09-18T03:05:23;12.07;;;10.88;;
10031;SDS011;5056;44.272;19.892;2023-09-18T03:07:50;12.27;;;11.10;;
10031;SDS011;5056;44.272;19.892;2023-09-18T03:10:17;12.35;;;10.90;;
10031;SDS011;5056;44.272;19.892;2023-09-18T03:12:50;13.77;;;12.45;;
10031;SDS011;5056;44.272;19.892;2023-09-18T03:15:17;12.45;;;11.32;;
10031;SDS011;5056;44.272;19.892;2023-09-18T03:17:44;11.80;;;10.80;;
10031;SDS011;5056;44.272;19.892;2023-09-18T03:20:15;12.32;;;11.10;;
10031;SDS011;5056;44.272;19.892;2023-09-18T03:22:41;11.82;;;10.77;;
10031;SDS011;5056;44.272;19.892;2023-09-18T03:25:11;11.20;;;10.20;;
10031;SDS011;5056;44.272;19.892;2023-09-18T03:27:39;11.95;;;10.75;;
10031;SDS011;5056;44.272;19.892;2023-09-18T03:30:07;11.43;;;10.43;;
10031;SDS011;5056;44.272;19.892;2023-09-18T03:32:35;11.60;;;10.40;;
10031;SDS011;5056;44.272;19.892;2023-09-18T03:35:03;11.27;;;10.27;;
10031;SDS011;5056;44.272;19.892;2023-09-18T03:37:33;12.27;;;11.18;;
10031;SDS011;5056;44.272;19.892;2023-09-18T03:40:00;12.30;;;11.18;;
10031;SDS011;5056;44.272;19.892;2023-09-18T03:42:31;12.05;;;10.90;;
10031;SDS011;5056;44.272;19.892;2023-09-18T03:45:05;11.30;;;10.30;;
10031;SDS011;5056;44.272;19.892;2023-09-18T03:47:36;12.40;;;11.20;;
10031;SDS011;5056;44.272;19.892;2023-09-18T03:50:04;13.45;;;12.35;;
10031;SDS011;5056;44.272;19.892;2023-09-18T03:52:34;12.80;;;11.60;;
10031;SDS011;5056;44.272;19.892;2023-09-18T03:55:04;12.32;;;11.18;;
10031;SDS011;5056;44.272;19.892;2023-09-18T03:57:31;11.00;;;9.95;;
10031;SDS011;5056;44.272;19.892;2023-09-18T04:00:00;12.70;;;10.85;;
10031;SDS011;5056;44.272;19.892;2023-09-18T04:02:27;11.73;;;10.55;;
10031;SDS011;5056;44.272;19.892;2023-09-18T04:04:55;11.68;;;10.70;;
10031;SDS011;5056;44.272;19.892;2023-09-18T04:10:18;11.52;;;10.48;;
10031;SDS011;5056;44.272;19.892;2023-09-18T04:13:02;12.23;;;11.13;;
10031;SDS011;5056;44.272;19.892;2023-09-18T04:15:29;10.95;;;10.05;;
10031;SDS011;5056;44.272;19.892;2023-09-18T04:17:56;11.35;;;10.35;;
10031;SDS011;5056;44.272;19.892;2023-09-18T04:20:23;12.48;;;11.15;;
10031;SDS011;5056;44.272;19.892;2023-09-18T04:25:45;13.15;;;11.75;;
10031;SDS011;5056;44.272;19.892;2023-09-18T04:28:13;11.18;;;10.07;;
10031;SDS011;5056;44.272;19.892;2023-09-18T04:30:40;11.93;;;10.82;;
10031;SDS011;5056;44.272;19.892;2023-09-18T04:33:06;10.85;;;9.95;;
10031;SDS011;5056;44.272;19.892;2023-09-18T04:38:37;11.23;;;10.32;;
10031;SDS011;5056;44.272;19.892;2023-09-18T04:41:04;11.52;;;10.63;;
10031;SDS011;5056;44.272;19.892;2023-09-18T04:43:33;13.85;;;11.70;;
10031;SDS011;5056;44.272;19.892;2023-09-18T04:46:00;12.38;;;11.20;;
10031;SDS011;5056;44.272;19.892;2023-09-18T04:48:27;11.75;;;10.60;;
10031;SDS011;5056;44.272;19.892;2023-09-18T04:50:55;11.32;;;10.27;;
10031;SDS011;5056;44.272;19.892;2023-09-18T04:53:22;12.27;;;11.05;;
10031;SDS011;5056;44.272;19.892;2023-09-18T04:55:50;11.77;;;10.68;;
10031;SDS011;5056;44.272;19.892;2023-09-18T04:58:20;12.95;;;11.77;;
10031;SDS011;5056;44.272;19.892;2023-09-18T05:00:47;12.57;;;11.27;;
10031;SDS011;5056;44.272;19.892;2023-09-18T05:03:20;12.23;;;11.05;;
10031;SDS011;5056;44.272;19.892;2023-09-18T05:08:50;13.77;;;10.70;;
10031;SDS011;5056;44.272;19.892;2023-09-18T05:11:20;12.13;;;10.95;;
10031;SDS011;5056;44.272;19.892;2023-09-18T05:13:47;14.98;;;12.57;;
10031;SDS011;5056;44.272;19.892;2023-09-18T05:16:14;12.60;;;11.27;;
10031;SDS011;5056;44.272;19.892;2023-09-18T05:18:42;13.40;;;12.15;;
10031;SDS011;5056;44.272;19.892;2023-09-18T05:21:09;13.07;;;11.80;;
10031;SDS011;5056;44.272;19.892;2023-09-18T05:23:45;11.93;;;10.73;;
10031;SDS011;5056;44.272;19.892;2023-09-18T05:26:12;13.25;;;11.77;;
10031;SDS011;5056;44.272;19.892;2023-09-18T05:28:40;12.93;;;11.63;;
10031;SDS011;5056;44.272;19.892;2023-09-18T05:31:07;13.93;;;12.63;;
10031;SDS011;5056;44.272;19.892;2023-09-18T05:33:35;14.32;;;13.02;;
10031;SDS011;5056;44.272;19.892;2023-09-18T05:36:02;13.48;;;12.15;;
10031;SDS011;5056;44.272;19.892;2023-09-18T05:38:29;16.05;;;13.07;;
10031;SDS011;5056;44.272;19.892;2023-09-18T05:40:59;18.10;;;14.02;;
10031;SDS011;5056;44.272;19.892;2023-09-18T05:43:36;14.95;;;12.93;;
10031;SDS011;5056;44.272;19.892;2023-09-18T05:46:04;14.82;;;13.38;;
10031;SDS011;5056;44.272;19.892;2023-09-18T05:48:33;13.80;;;12.50;;
10031;SDS011;5056;44.272;19.892;2023-09-18T05:51:01;13.90;;;12.48;;
10031;SDS011;5056;44.272;19.892;2023-09-18T05:53:29;13.75;;;12.38;;
10031;SDS011;5056;44.272;19.892;2023-09-18T05:56:00;13.60;;;12.23;;
10031;SDS011;5056;44.272;19.892;2023-09-18T05:58:29;14.63;;;13.10;;
10031;SDS011;5056;44.272;19.892;2023-09-18T06:00:57;13.50;;;12.20;;
10031;SDS011;5056;44.272;19.892;2023-09-18T06:03:27;14.75;;;13.10;;
10031;SDS011;5056;44.272;19.892;2023-09-18T06:05:56;15.68;;;14.15;;
10031;SDS011;5056;44.272;19.892;2023-09-18T06:08:34;15.98;;;14.50;;
10031;SDS011;5056;44.272;19.892;2023-09-18T06:11:02;17.15;;;15.63;;
10031;SDS011;5056;44.272;19.892;2023-09-18T06:13:29;17.42;;;15.88;;
10031;SDS011;5056;44.272;19.892;2023-09-18T06:15:56;18.58;;;16.70;;
10031;SDS011;5056;44.272;19.892;2023-09-18T06:18:24;18.08;;;16.40;;
10031;SDS011;5056;44.272;19.892;2023-09-18T06:20:54;18.95;;;17.15;;
10031;SDS011;5056;44.272;19.892;2023-09-18T06:23:23;19.80;;;17.63;;
10031;SDS011;5056;44.272;19.892;2023-09-18T06:25:55;18.95;;;17.02;;
10031;SDS011;5056;44.272;19.892;2023-09-18T06:28:35;19.70;;;17.60;;
10031;SDS011;5056;44.272;19.892;2023-09-18T06:31:02;21.65;;;17.70;;
10031;SDS011;5056;44.272;19.892;2023-09-18T06:33:29;22.55;;;17.42;;
10031;SDS011;5056;44.272;19.892;2023-09-18T06:35:58;22.10;;;17.67;;
10031;SDS011;5056;44.272;19.892;2023-09-18T06:38:25;18.08;;;16.10;;
10031;SDS011;5056;44.272;19.892;2023-09-18T06:43:52;17.80;;;14.75;;
10031;SDS011;5056;44.272;19.892;2023-09-18T06:48:50;16.83;;;14.98;;
10031;SDS011;5056;44.272;19.892;2023-09-18T06:51:18;17.20;;;15.38;;
10031;SDS011;5056;44.272;19.892;2023-09-18T06:53:45;15.70;;;14.07;;
10031;SDS011;5056;44.272;19.892;2023-09-18T06:56:12;16.50;;;14.02;;
10031;SDS011;5056;44.272;19.892;2023-09-18T07:01:38;16.60;;;14.55;;
10031;SDS011;5056;44.272;19.892;2023-09-18T07:04:06;17.15;;;13.60;;
10031;SDS011;5056;44.272;19.892;2023-09-18T07:06:34;14.93;;;13.38;;
10031;SDS011;5056;44.272;19.892;2023-09-18T07:09:13;16.58;;;12.85;;
10031;SDS011;5056;44.272;19.892;2023-09-18T07:11:40;23.23;;;12.43;;
10031;SDS011;5056;44.272;19.892;2023-09-18T07:17:06;17.63;;;13.27;;
10031;SDS011;5056;44.272;19.892;2023-09-18T07:19:37;14.43;;;12.85;;
10031;SDS011;5056;44.272;19.892;2023-09-18T07:22:05;16.00;;;12.73;;
10031;SDS011;5056;44.272;19.892;2023-09-18T07:24:33;14.15;;;11.18;;
10031;SDS011;5056;44.272;19.892;2023-09-18T07:27:00;17.25;;;11.07;;
10031;SDS011;5056;44.272;19.892;2023-09-18T07:29:28;12.57;;;11.40;;
10031;SDS011;5056;44.272;19.892;2023-09-18T07:31:56;18.88;;;10.73;;
10031;SDS011;5056;44.272;19.892;2023-09-18T07:34:27;13.63;;;10.80;;
10031;SDS011;5056;44.272;19.892;2023-09-18T07:36:54;13.43;;;11.90;;
10031;SDS011;5056;44.272;19.892;2023-09-18T07:39:28;11.90;;;10.65;;
10031;SDS011;5056;44.272;19.892;2023-09-18T07:41:54;11.50;;;9.95;;
10031;SDS011;5056;44.272;19.892;2023-09-18T07:44:38;13.18;;;10.40;;
10031;SDS011;5056;44.272;19.892;2023-09-18T07:47:06;10.88;;;8.48;;
10031;SDS011;5056;44.272;19.892;2023-09-18T07:49:33;10.45;;;8.85;;
10031;SDS011;5056;44.272;19.892;2023-09-18T07:52:01;10.50;;;9.27;;
10031;SDS011;5056;44.272;19.892;2023-09-18T07:54:29;12.18;;;9.55;;
10031;SDS011;5056;44.272;19.892;2023-09-18T07:56:56;11.50;;;10.45;;
10031;SDS011;5056;44.272;19.892;2023-09-18T07:59:26;10.80;;;9.88;;
10031;SDS011;5056;44.272;19.892;2023-09-18T08:01:54;10.07;;;9.13;;
10031;SDS011;5056;44.272;19.892;2023-09-18T08:04:23;11.88;;;10.98;;
10031;SDS011;5056;44.272;19.892;2023-09-18T08:06:50;11.02;;;10.13;;
10031;SDS011;5056;44.272;19.892;2023-09-18T08:09:18;10.68;;;9.75;;
10031;SDS011;5056;44.272;19.892;2023-09-18T08:11:47;10.05;;;9.05;;
10031;SDS011;5056;44.272;19.892;2023-09-18T08:14:15;11.63;;;9.80;;
10031;SDS011;5056;44.272;19.892;2023-09-18T08:16:42;9.95;;;9.00;;
10031;SDS011;5056;44.272;19.892;2023-09-18T08:19:09;9.27;;;8.55;;
10031;SDS011;5056;44.272;19.892;2023-09-18T08:21:36;9.85;;;8.95;;
10031;SDS011;5056;44.272;19.892;2023-09-18T08:24:05;11.68;;;9.60;;
10031;SDS011;5056;44.272;19.892;2023-09-18T08:26:32;9.77;;;8.70;;
10031;SDS011;5056;44.272;19.892;2023-09-18T08:29:00;9.13;;;8.43;;
10031;SDS011;5056;44.272;19.892;2023-09-18T08:31:27;10.13;;;9.13;;
10031;SDS011;5056;44.272;19.892;2023-09-18T08:33:57;10.18;;;9.35;;
10031;SDS011;5056;44.272;19.892;2023-09-18T08:36:24;14.45;;;9.48;;
10031;SDS011;5056;44.272;19.892;2023-09-18T08:38:54;10.48;;;9.55;;
10031;SDS011;5056;44.272;19.892;2023-09-18T08:41:21;10.10;;;9.30;;
10031;SDS011;5056;44.272;19.892;2023-09-18T08:43:52;9.18;;;8.45;;
10031;SDS011;5056;44.272;19.892;2023-09-18T08:46:20;9.55;;;8.85;;
10031;SDS011;5056;44.272;19.892;2023-09-18T08:48:48;10.27;;;9.30;;
10031;SDS011;5056;44.272;19.892;2023-09-18T08:51:18;8.93;;;8.15;;
10031;SDS011;5056;44.272;19.892;2023-09-18T08:53:46;9.05;;;8.25;;
10031;SDS011;5056;44.272;19.892;2023-09-18T08:56:13;9.13;;;8.43;;
10031;SDS011;5056;44.272;19.892;2023-09-18T08:58:40;9.20;;;8.50;;
10031;SDS011;5056;44.272;19.892;2023-09-18T09:01:08;8.52;;;7.82;;
10031;SDS011;5056;44.272;19.892;2023-09-18T09:03:37;9.63;;;8.82;;
10031;SDS011;5056;44.272;19.892;2023-09-18T09:06:04;8.93;;;8.30;;
10031;SDS011;5056;44.272;19.892;2023-09-18T09:08:31;9.07;;;8.45;;
10031;SDS011;5056;44.272;19.892;2023-09-18T09:10:58;9.40;;;8.45;;
10031;SDS011;5056;44.272;19.892;2023-09-18T09:13:26;9.57;;;8.30;;
10031;SDS011;5056;44.272;19.892;2023-09-18T09:15:53;9.43;;;8.48;;
10031;SDS011;5056;44.272;19.892;2023-09-18T09:18:22;9.65;;;8.90;;
10031;SDS011;5056;44.272;19.892;2023-09-18T09:20:56;10.40;;;8.68;;
10031;SDS011;5056;44.272;19.892;2023-09-18T09:23:25;9.27;;;8.50;;
10031;SDS011;5056;44.272;19.892;2023-09-18T09:26:11;9.25;;;8.35;;
10031;SDS011;5056;44.272;19.892;2023-09-18T09:28:39;8.35;;;7.75;;
10031;SDS011;5056;44.272;19.892;2023-09-18T09:31:08;9.70;;;8.05;;
10031;SDS011;5056;44.272;19.892;2023-09-18T09:33:36;8.38;;;7.63;;
10031;SDS011;5056;44.272;19.892;2023-09-18T09:36:05;9.30;;;8.40;;
10031;SDS011;5056;44.272;19.892;2023-09-18T09:38:33;8.48;;;7.78;;
10031;SDS011;5056;44.272;19.892;2023-09-18T09:41:02;8.35;;;7.35;;
10031;SDS011;5056;44.272;19.892;2023-09-18T09:43:32;8.98;;;7.68;;
10031;SDS011;5056;44.272;19.892;2023-09-18T09:46:00;8.98;;;8.20;;
10031;SDS011;5056;44.272;19.892;2023-09-18T09:48:30;8.90;;;8.20;;
10031;SDS011;5056;44.272;19.892;2023-09-18T09:50:59;8.80;;;7.72;;
10031;SDS011;5056;44.272;19.892;2023-09-18T09:56:16;8.57;;;7.68;;
10031;SDS011;5056;44.272;19.892;2023-09-18T09:59:01;9.10;;;8.30;;
10031;SDS011;5056;44.272;19.892;2023-09-18T10:01:32;8.88;;;8.18;;
10031;SDS011;5056;44.272;19.892;2023-09-18T10:03:59;8.50;;;7.90;;
10031;SDS011;5056;44.272;19.892;2023-09-18T10:06:30;8.45;;;7.65;;
10031;SDS011;5056;44.272;19.892;2023-09-18T10:09:01;8.57;;;7.68;;
10031;SDS011;5056;44.272;19.892;2023-09-18T10:11:28;8.55;;;7.85;;
10031;SDS011;5056;44.272;19.892;2023-09-18T10:13:58;8.18;;;7.47;;
10031;SDS011;5056;44.272;19.892;2023-09-18T10:16:28;8.05;;;7.38;;
10031;SDS011;5056;44.272;19.892;2023-09-18T10:19:02;7.82;;;7.22;;
10031;SDS011;5056;44.272;19.892;2023-09-18T10:21:38;9.60;;;8.40;;
10031;SDS011;5056;44.272;19.892;2023-09-18T10:24:13;8.60;;;7.90;;
10031;SDS011;5056;44.272;19.892;2023-09-18T10:26:47;8.50;;;7.63;;
10031;SDS011;5056;44.272;19.892;2023-09-18T10:29:17;9.00;;;8.20;;
10031;SDS011;5056;44.272;19.892;2023-09-18T10:31:46;9.75;;;8.88;;
10031;SDS011;5056;44.272;19.892;2023-09-18T10:34:13;8.32;;;7.63;;
10031;SDS011;5056;44.272;19.892;2023-09-18T10:36:42;9.43;;;7.60;;
10031;SDS011;5056;44.272;19.892;2023-09-18T10:39:11;8.32;;;7.60;;
10031;SDS011;5056;44.272;19.892;2023-09-18T10:41:38;9.43;;;7.60;;
10031;SDS011;5056;44.272;19.892;2023-09-18T10:44:06;7.47;;;6.97;;
10031;SDS011;5056;44.272;19.892;2023-09-18T10:46:34;8.15;;;7.00;;
10031;SDS011;5056;44.272;19.892;2023-09-18T10:49:02;7.55;;;6.80;;
10031;SDS011;5056;44.272;19.892;2023-09-18T10:51:29;6.90;;;6.30;;
10031;SDS011;5056;44.272;19.892;2023-09-18T10:53:59;7.20;;;6.47;;
10031;SDS011;5056;44.272;19.892;2023-09-18T10:56:30;8.82;;;6.38;;
10031;SDS011;5056;44.272;19.892;2023-09-18T10:58:58;7.65;;;6.88;;
10031;SDS011;5056;44.272;19.892;2023-09-18T11:01:27;7.35;;;6.75;;
10031;SDS011;5056;44.272;19.892;2023-09-18T11:03:57;7.00;;;6.50;;
10031;SDS011;5056;44.272;19.892;2023-09-18T11:06:26;6.95;;;6.25;;
10031;SDS011;5056;44.272;19.892;2023-09-18T11:08:59;7.45;;;6.72;;
10031;SDS011;5056;44.272;19.892;2023-09-18T11:11:31;7.45;;;6.95;;
10031;SDS011;5056;44.272;19.892;2023-09-18T11:14:02;9.85;;;6.95;;
10031;SDS011;5056;44.272;19.892;2023-09-18T11:16:33;7.97;;;7.15;;
10031;SDS011;5056;44.272;19.892;2023-09-18T11:19:11;7.57;;;6.72;;
10031;SDS011;5056;44.272;19.892;2023-09-18T11:21:39;7.03;;;6.43;;
10031;SDS011;5056;44.272;19.892;2023-09-18T11:24:07;6.82;;;6.22;;
10031;SDS011;5056;44.272;19.892;2023-09-18T11:26:39;7.05;;;6.45;;
10031;SDS011;5056;44.272;19.892;2023-09-18T11:29:08;7.10;;;6.57;;
10031;SDS011;5056;44.272;19.892;2023-09-18T11:31:43;7.05;;;6.53;;
10031;SDS011;5056;44.272;19.892;2023-09-18T11:34:11;7.85;;;6.50;;
10031;SDS011;5056;44.272;19.892;2023-09-18T11:36:39;6.95;;;6.35;;
10031;SDS011;5056;44.272;19.892;2023-09-18T11:39:08;6.95;;;6.45;;
10031;SDS011;5056;44.272;19.892;2023-09-18T11:41:38;7.10;;;6.40;;
10031;SDS011;5056;44.272;19.892;2023-09-18T11:47:06;6.60;;;6.10;;
10031;SDS011;5056;44.272;19.892;2023-09-18T11:49:37;6.55;;;5.95;;
10031;SDS011;5056;44.272;19.892;2023-09-18T11:52:05;6.25;;;5.85;;
10031;SDS011;5056;44.272;19.892;2023-09-18T11:54:32;6.97;;;6.38;;
10031;SDS011;5056;44.272;19.892;2023-09-18T11:57:04;10.40;;;6.65;;
10031;SDS011;5056;44.272;19.892;2023-09-18T11:59:36;6.53;;;6.00;;
10031;SDS011;5056;44.272;19.892;2023-09-18T12:02:03;7.35;;;6.05;;
10031;SDS011;5056;44.272;19.892;2023-09-18T12:04:33;7.60;;;6.47;;
10031;SDS011;5056;44.272;19.892;2023-09-18T12:07:01;7.20;;;6.47;;
10031;SDS011;5056;44.272;19.892;2023-09-18T12:09:29;7.15;;;6.35;;
10031;SDS011;5056;44.272;19.892;2023-09-18T12:11:57;7.30;;;6.60;;
10031;SDS011;5056;44.272;19.892;2023-09-18T12:14:26;7.55;;;6.85;;
10031;SDS011;5056;44.272;19.892;2023-09-18T12:16:55;7.47;;;6.88;;
10031;SDS011;5056;44.272;19.892;2023-09-18T12:19:23;6.55;;;5.95;;
10031;SDS011;5056;44.272;19.892;2023-09-18T12:21:51;7.35;;;6.35;;
10031;SDS011;5056;44.272;19.892;2023-09-18T12:24:20;7.90;;;7.22;;
10031;SDS011;5056;44.272;19.892;2023-09-18T12:26:48;7.15;;;6.55;;
10031;SDS011;5056;44.272;19.892;2023-09-18T12:29:18;7.32;;;6.32;;
10031;SDS011;5056;44.272;19.892;2023-09-18T12:31:54;6.97;;;6.47;;
10031;SDS011;5056;44.272;19.892;2023-09-18T12:34:21;7.45;;;6.75;;
10031;SDS011;5056;44.272;19.892;2023-09-18T12:36:50;9.82;;;6.18;;
10031;SDS011;5056;44.272;19.892;2023-09-18T12:39:17;6.85;;;6.25;;
10031;SDS011;5056;44.272;19.892;2023-09-18T12:41:46;6.55;;;5.95;;
10031;SDS011;5056;44.272;19.892;2023-09-18T12:46:47;7.00;;;6.38;;
10031;SDS011;5056;44.272;19.892;2023-09-18T12:49:21;6.93;;;6.22;;
10031;SDS011;5056;44.272;19.892;2023-09-18T12:51:56;6.20;;;5.70;;
10031;SDS011;5056;44.272;19.892;2023-09-18T12:54:36;6.93;;;6.43;;
10031;SDS011;5056;44.272;19.892;2023-09-18T12:57:06;6.40;;;5.90;;
10031;SDS011;5056;44.272;19.892;2023-09-18T12:59:34;6.45;;;5.95;;
10031;SDS011;5056;44.272;19.892;2023-09-18T13:02:03;9.05;;;6.63;;
10031;SDS011;5056;44.272;19.892;2023-09-18T13:04:32;6.35;;;5.82;;
10031;SDS011;5056;44.272;19.892;2023-09-18T13:07:06;8.50;;;5.85;;
10031;SDS011;5056;44.272;19.892;2023-09-18T13:09:33;8.80;;;6.20;;
10031;SDS011;5056;44.272;19.892;2023-09-18T13:12:05;7.43;;;5.78;;
10031;SDS011;5056;44.272;19.892;2023-09-18T13:17:28;8.77;;;6.63;;
10031;SDS011;5056;44.272;19.892;2023-09-18T13:20:07;6.38;;;5.78;;
10031;SDS011;5056;44.272;19.892;2023-09-18T13:22:36;6.13;;;5.63;;
10031;SDS011;5056;44.272;19.892;2023-09-18T13:25:08;6.18;;;5.60;;
10031;SDS011;5056;44.272;19.892;2023-09-18T13:27:36;6.60;;;5.82;;
10031;SDS011;5056;44.272;19.892;2023-09-18T13:30:17;10.18;;;5.80;;
10031;SDS011;5056;44.272;19.892;2023-09-18T13:33:00;6.65;;;5.97;;
10031;SDS011;5056;44.272;19.892;2023-09-18T13:35:33;8.38;;;6.25;;
10031;SDS011;5056;44.272;19.892;2023-09-18T13:38:00;9.27;;;6.22;;
10031;SDS011;5056;44.272;19.892;2023-09-18T13:40:29;7.15;;;5.97;;
10031;SDS011;5056;44.272;19.892;2023-09-18T13:42:56;6.85;;;6.25;;
10031;SDS011;5056;44.272;19.892;2023-09-18T13:45:23;6.78;;;6.00;;
10031;SDS011;5056;44.272;19.892;2023-09-18T13:47:52;7.22;;;6.38;;
10031;SDS011;5056;44.272;19.892;2023-09-18T13:50:19;6.45;;;5.95;;
10031;SDS011;5056;44.272;19.892;2023-09-18T13:52:48;6.93;;;5.95;;
10031;SDS011;5056;44.272;19.892;2023-09-18T13:55:21;7.68;;;6.65;;
10031;SDS011;5056;44.272;19.892;2023-09-18T13:57:51;8.07;;;6.55;;
10031;SDS011;5056;44.272;19.892;2023-09-18T14:00:21;8.88;;;6.70;;
10031;SDS011;5056;44.272;19.892;2023-09-18T14:02:51;7.72;;;6.32;;
10031;SDS011;5056;44.272;19.892;2023-09-18T14:05:20;6.35;;;5.82;;
10031;SDS011;5056;44.272;19.892;2023-09-18T14:07:49;8.52;;;6.45;;
10031;SDS011;5056;44.272;19.892;2023-09-18T14:10:19;7.45;;;6.13;;
10031;SDS011;5056;44.272;19.892;2023-09-18T14:12:48;5.82;;;5.32;;
10031;SDS011;5056;44.272;19.892;2023-09-18T14:15:21;6.80;;;6.15;;
10031;SDS011;5056;44.272;19.892;2023-09-18T14:17:49;7.20;;;6.40;;
10031;SDS011;5056;44.272;19.892;2023-09-18T14:20:36;9.05;;;6.05;;
10031;SDS011;5056;44.272;19.892;2023-09-18T14:23:07;6.18;;;5.65;;
10031;SDS011;5056;44.272;19.892;2023-09-18T14:25:37;7.30;;;5.97;;
10031;SDS011;5056;44.272;19.892;2023-09-18T14:28:06;6.93;;;6.05;;
10031;SDS011;5056;44.272;19.892;2023-09-18T14:30:34;5.72;;;5.32;;
10031;SDS011;5056;44.272;19.892;2023-09-18T14:33:03;7.20;;;6.30;;
10031;SDS011;5056;44.272;19.892;2023-09-18T14:39:17;9.75;;;6.72;;
10031;SDS011;5056;44.272;19.892;2023-09-18T14:41:44;6.90;;;6.40;;
10031;SDS011;5056;44.272;19.892;2023-09-18T14:44:12;7.03;;;5.93;;
10031;SDS011;5056;44.272;19.892;2023-09-18T14:46:40;6.38;;;5.78;;
10031;SDS011;5056;44.272;19.892;2023-09-18T14:49:08;6.38;;;5.88;;
10031;SDS011;5056;44.272;19.892;2023-09-18T14:51:35;7.63;;;6.63;;
10031;SDS011;5056;44.272;19.892;2023-09-18T14:54:03;7.18;;;6.55;;
10031;SDS011;5056;44.272;19.892;2023-09-18T14:59:28;6.53;;;5.90;;
10031;SDS011;5056;44.272;19.892;2023-09-18T15:05:18;6.80;;;6.15;;
10031;SDS011;5056;44.272;19.892;2023-09-18T15:07:45;6.68;;;6.13;;
10031;SDS011;5056;44.272;19.892;2023-09-18T15:10:13;8.40;;;5.93;;
10031;SDS011;5056;44.272;19.892;2023-09-18T15:15:55;7.32;;;5.97;;
10031;SDS011;5056;44.272;19.892;2023-09-18T15:18:24;6.47;;;5.75;;
10031;SDS011;5056;44.272;19.892;2023-09-18T15:20:51;6.78;;;6.28;;
10031;SDS011;5056;44.272;19.892;2023-09-18T15:23:22;7.55;;;6.30;;
10031;SDS011;5056;44.272;19.892;2023-09-18T15:25:49;6.63;;;5.95;;
10031;SDS011;5056;44.272;19.892;2023-09-18T15:28:18;9.35;;;6.78;;
10031;SDS011;5056;44.272;19.892;2023-09-18T15:30:49;8.57;;;5.88;;
10031;SDS011;5056;44.272;19.892;2023-09-18T15:33:25;6.78;;;6.07;;
10031;SDS011;5056;44.272;19.892;2023-09-18T15:35:55;6.13;;;5.43;;
10031;SDS011;5056;44.272;19.892;2023-09-18T15:38:22;6.88;;;6.25;;